sensor_id;sensor_type;location;lat;lon;timestamp;temperature;humidity
11446;DHT22;5779;64.178;15.432;2023-05-07T00:01:29;-0.50;99.90
11446;DHT22;5779;64.178;15.432;2023-05-07T00:04:18;-0.50;99.90
11446;DHT22;5779;64.178;15.432;2023-05-07T00:07:05;-0.50;99.90
11446;DHT22;5779;64.178;15.432;2023-05-07T00:09:51;-0.60;99.90
11446;DHT22;5779;64.178;15.432;2023-05-07T00:12:39;-0.40;99.90
11446;DHT22;5779;64.178;15.432;2023-05-07T00:15:27;-0.30;99.90
11446;DHT22;5779;64.178;15.432;2023-05-07T00:18:13;-0.50;99.90
11446;DHT22;5779;64.178;15.432;2023-05-07T00:21:01;-0.80;99.90
11446;DHT22;5779;64.178;15.432;2023-05-07T00:23:48;-0.70;99.90
11446;DHT22;5779;64.178;15.432;2023-05-07T00:26:35;-0.70;99.90
11446;DHT22;5779;64.178;15.432;2023-05-07T00:29:21;-0.70;99.90
11446;DHT22;5779;64.178;15.432;2023-05-07T00:32:08;-0.80;99.90
11446;DHT22;5779;64.178;15.432;2023-05-07T00:34:55;-0.80;99.90
11446;DHT22;5779;64.178;15.432;2023-05-07T00:37:43;-0.90;99.90
11446;DHT22;5779;64.178;15.432;2023-05-07T00:40:30;-1.00;99.90
11446;DHT22;5779;64.178;15.432;2023-05-07T00:43:18;-1.10;99.90
11446;DHT22;5779;64.178;15.432;2023-05-07T00:46:05;-1.60;99.90
11446;DHT22;5779;64.178;15.432;2023-05-07T00:48:52;-1.50;99.90
11446;DHT22;5779;64.178;15.432;2023-05-07T00:51:39;-1.50;99.90
11446;DHT22;5779;64.178;15.432;2023-05-07T00:54:28;-1.30;99.90
11446;DHT22;5779;64.178;15.432;2023-05-07T00:57:15;-1.30;99.90
11446;DHT22;5779;64.178;15.432;2023-05-07T01:00:03;-1.40;99.90
11446;DHT22;5779;64.178;15.432;2023-05-07T01:02:50;-1.50;99.90
11446;DHT22;5779;64.178;15.432;2023-05-07T01:05:37;-1.40;99.90
11446;DHT22;5779;64.178;15.432;2023-05-07T01:08:24;-1.30;99.90
11446;DHT22;5779;64.178;15.432;2023-05-07T01:11:14;-1.30;99.90
11446;DHT22;5779;64.178;15.432;2023-05-07T01:14:02;-1.10;99.90
11446;DHT22;5779;64.178;15.432;2023-05-07T01:16:48;-1.10;99.90
11446;DHT22;5779;64.178;15.432;2023-05-07T01:19:36;-1.10;99.90
11446;DHT22;5779;64.178;15.432;2023-05-07T01:22:29;-1.00;99.90
11446;DHT22;5779;64.178;15.432;2023-05-07T01:25:17;-1.00;99.90
11446;DHT22;5779;64.178;15.432;2023-05-07T01:28:04;-1.10;99.90
11446;DHT22;5779;64.178;15.432;2023-05-07T01:30:54;-1.10;99.90
11446;DHT22;5779;64.178;15.432;2023-05-07T01:33:42;-1.50;99.90
11446;DHT22;5779;64.178;15.432;2023-05-07T01:36:32;-1.70;99.90
11446;DHT22;5779;64.178;15.432;2023-05-07T01:39:20;-2.00;99.90
11446;DHT22;5779;64.178;15.432;2023-05-07T01:42:08;-2.10;99.90
11446;DHT22;5779;64.178;15.432;2023-05-07T01:44:54;-2.00;99.90
11446;DHT22;5779;64.178;15.432;2023-05-07T01:47:41;-1.90;99.90
11446;DHT22;5779;64.178;15.432;2023-05-07T01:50:29;-1.70;99.90
11446;DHT22;5779;64.178;15.432;2023-05-07T01:53:17;-1.70;99.90
11446;DHT22;5779;64.178;15.432;2023-05-07T01:56:06;-1.70;99.90
11446;DHT22;5779;64.178;15.432;2023-05-07T01:58:53;-1.60;99.90
11446;DHT22;5779;64.178;15.432;2023-05-07T02:01:40;-1.50;99.90
11446;DHT22;5779;64.178;15.432;2023-05-07T02:04:27;-1.70;99.90
11446;DHT22;5779;64.178;15.432;2023-05-07T02:07:14;-1.80;99.90
11446;DHT22;5779;64.178;15.432;2023-05-07T02:10:01;-1.90;99.90
11446;DHT22;5779;64.178;15.432;2023-05-07T02:12:49;-1.90;99.90
11446;DHT22;5779;64.178;15.432;2023-05-07T02:15:36;-1.80;99.90
11446;DHT22;5779;64.178;15.432;2023-05-07T02:18:22;-1.90;99.90
11446;DHT22;5779;64.178;15.432;2023-05-07T02:21:09;-2.10;99.90
11446;DHT22;5779;64.178;15.432;2023-05-07T02:23:56;-2.10;99.90
11446;DHT22;5779;64.178;15.432;2023-05-07T02:26:43;-2.00;99.90
11446;DHT22;5779;64.178;15.432;2023-05-07T02:29:32;-2.00;99.90
11446;DHT22;5779;64.178;15.432;2023-05-07T02:32:18;-1.80;99.90
11446;DHT22;5779;64.178;15.432;2023-05-07T02:35:06;-1.70;99.90
11446;DHT22;5779;64.178;15.432;2023-05-07T02:37:52;-1.90;99.90
11446;DHT22;5779;64.178;15.432;2023-05-07T02:40:39;-1.90;99.90
11446;DHT22;5779;64.178;15.432;2023-05-07T02:43:26;-1.70;99.90
11446;DHT22;5779;64.178;15.432;2023-05-07T02:46:14;-1.70;99.90
11446;DHT22;5779;64.178;15.432;2023-05-07T02:49:01;-1.60;99.90
11446;DHT22;5779;64.178;15.432;2023-05-07T02:51:48;-1.60;99.90
11446;DHT22;5779;64.178;15.432;2023-05-07T02:54:35;-1.60;99.90
11446;DHT22;5779;64.178;15.432;2023-05-07T02:57:22;-1.50;99.90
11446;DHT22;5779;64.178;15.432;2023-05-07T03:00:14;-1.40;99.90
11446;DHT22;5779;64.178;15.432;2023-05-07T03:03:02;-1.40;99.90
11446;DHT22;5779;64.178;15.432;2023-05-07T03:05:49;-1.50;99.90
11446;DHT22;5779;64.178;15.432;2023-05-07T03:08:36;-1.30;99.90
11446;DHT22;5779;64.178;15.432;2023-05-07T03:11:23;-1.30;99.90
11446;DHT22;5779;64.178;15.432;2023-05-07T03:14:10;-1.20;99.90
11446;DHT22;5779;64.178;15.432;2023-05-07T03:16:57;-1.10;99.90
11446;DHT22;5779;64.178;15.432;2023-05-07T03:19:45;-1.10;99.90
11446;DHT22;5779;64.178;15.432;2023-05-07T03:22:32;-1.20;99.90
11446;DHT22;5779;64.178;15.432;2023-05-07T03:25:19;-1.20;99.90
11446;DHT22;5779;64.178;15.432;2023-05-07T03:28:06;-1.20;99.90
11446;DHT22;5779;64.178;15.432;2023-05-07T03:30:53;-1.20;99.90
11446;DHT22;5779;64.178;15.432;2023-05-07T03:33:51;-1.20;99.90
11446;DHT22;5779;64.178;15.432;2023-05-07T03:36:39;-1.30;99.90
11446;DHT22;5779;64.178;15.432;2023-05-07T03:39:26;-1.20;99.90
11446;DHT22;5779;64.178;15.432;2023-05-07T03:42:14;-1.10;99.90
11446;DHT22;5779;64.178;15.432;2023-05-07T03:45:01;-0.90;99.90
11446;DHT22;5779;64.178;15.432;2023-05-07T03:47:47;-0.80;99.90
11446;DHT22;5779;64.178;15.432;2023-05-07T03:50:34;-0.70;99.90
11446;DHT22;5779;64.178;15.432;2023-05-07T03:53:22;-0.60;99.90
11446;DHT22;5779;64.178;15.432;2023-05-07T03:56:09;-0.60;99.90
11446;DHT22;5779;64.178;15.432;2023-05-07T03:58:56;-0.70;99.90
11446;DHT22;5779;64.178;15.432;2023-05-07T04:01:43;-0.80;99.90
11446;DHT22;5779;64.178;15.432;2023-05-07T04:04:29;-0.80;99.90
11446;DHT22;5779;64.178;15.432;2023-05-07T04:07:17;-0.70;99.90
11446;DHT22;5779;64.178;15.432;2023-05-07T04:10:06;-0.50;99.90
11446;DHT22;5779;64.178;15.432;2023-05-07T04:12:53;-0.50;99.90
11446;DHT22;5779;64.178;15.432;2023-05-07T04:15:40;-0.70;99.90
11446;DHT22;5779;64.178;15.432;2023-05-07T04:18:27;-0.50;99.90
11446;DHT22;5779;64.178;15.432;2023-05-07T04:21:15;-0.60;99.90
11446;DHT22;5779;64.178;15.432;2023-05-07T04:24:03;-0.40;99.90
11446;DHT22;5779;64.178;15.432;2023-05-07T04:26:51;-0.10;99.90
11446;DHT22;5779;64.178;15.432;2023-05-07T04:29:40;0.00;99.90
11446;DHT22;5779;64.178;15.432;2023-05-07T04:32:27;-0.10;99.90
11446;DHT22;5779;64.178;15.432;2023-05-07T04:35:14;0.20;99.90
11446;DHT22;5779;64.178;15.432;2023-05-07T04:38:01;0.20;99.90
11446;DHT22;5779;64.178;15.432;2023-05-07T04:40:48;0.30;99.90
11446;DHT22;5779;64.178;15.432;2023-05-07T04:43:36;0.40;99.90
11446;DHT22;5779;64.178;15.432;2023-05-07T04:46:23;0.60;99.90
11446;DHT22;5779;64.178;15.432;2023-05-07T04:49:10;0.70;99.90
11446;DHT22;5779;64.178;15.432;2023-05-07T04:51:57;0.70;99.90
11446;DHT22;5779;64.178;15.432;2023-05-07T04:54:44;0.80;99.90
11446;DHT22;5779;64.178;15.432;2023-05-07T04:57:30;0.90;99.90
11446;DHT22;5779;64.178;15.432;2023-05-07T05:00:19;1.10;99.90
11446;DHT22;5779;64.178;15.432;2023-05-07T05:03:06;1.40;99.90
11446;DHT22;5779;64.178;15.432;2023-05-07T05:05:53;1.40;99.90
11446;DHT22;5779;64.178;15.432;2023-05-07T05:08:40;1.40;99.90
11446;DHT22;5779;64.178;15.432;2023-05-07T05:11:26;1.60;99.90
11446;DHT22;5779;64.178;15.432;2023-05-07T05:14:13;1.80;99.90
11446;DHT22;5779;64.178;15.432;2023-05-07T05:17:02;2.00;99.90
11446;DHT22;5779;64.178;15.432;2023-05-07T05:19:49;2.10;99.90
11446;DHT22;5779;64.178;15.432;2023-05-07T05:22:36;1.90;99.90
11446;DHT22;5779;64.178;15.432;2023-05-07T05:25:22;2.10;99.90
11446;DHT22;5779;64.178;15.432;2023-05-07T05:28:10;2.40;99.90
11446;DHT22;5779;64.178;15.432;2023-05-07T05:30:56;2.50;99.90
11446;DHT22;5779;64.178;15.432;2023-05-07T05:33:45;2.60;99.90
11446;DHT22;5779;64.178;15.432;2023-05-07T05:36:31;2.70;99.90
11446;DHT22;5779;64.178;15.432;2023-05-07T05:39:18;2.80;99.90
11446;DHT22;5779;64.178;15.432;2023-05-07T05:42:06;2.90;99.90
11446;DHT22;5779;64.178;15.432;2023-05-07T05:44:53;3.10;99.90
11446;DHT22;5779;64.178;15.432;2023-05-07T05:47:41;3.00;99.90
11446;DHT22;5779;64.178;15.432;2023-05-07T05:50:29;3.00;99.90
11446;DHT22;5779;64.178;15.432;2023-05-07T05:53:16;3.00;99.90
11446;DHT22;5779;64.178;15.432;2023-05-07T05:56:03;2.90;99.90
11446;DHT22;5779;64.178;15.432;2023-05-07T05:58:50;2.90;99.90
11446;DHT22;5779;64.178;15.432;2023-05-07T06:01:37;3.00;99.90
11446;DHT22;5779;64.178;15.432;2023-05-07T06:04:24;3.10;99.90
11446;DHT22;5779;64.178;15.432;2023-05-07T06:07:13;3.50;99.90
11446;DHT22;5779;64.178;15.432;2023-05-07T06:10:00;3.70;99.90
11446;DHT22;5779;64.178;15.432;2023-05-07T06:12:46;3.80;99.90
11446;DHT22;5779;64.178;15.432;2023-05-07T06:15:33;4.10;99.90
11446;DHT22;5779;64.178;15.432;2023-05-07T06:18:20;4.30;99.90
11446;DHT22;5779;64.178;15.432;2023-05-07T06:21:07;4.40;99.90
11446;DHT22;5779;64.178;15.432;2023-05-07T06:23:55;4.50;99.90
11446;DHT22;5779;64.178;15.432;2023-05-07T06:26:42;4.50;99.90
11446;DHT22;5779;64.178;15.432;2023-05-07T06:29:29;4.50;99.90
11446;DHT22;5779;64.178;15.432;2023-05-07T06:32:18;4.30;99.90
11446;DHT22;5779;64.178;15.432;2023-05-07T06:35:05;4.40;99.90
11446;DHT22;5779;64.178;15.432;2023-05-07T06:37:52;4.60;99.90
11446;DHT22;5779;64.178;15.432;2023-05-07T06:40:41;4.80;99.90
11446;DHT22;5779;64.178;15.432;2023-05-07T06:43:28;5.00;99.90
11446;DHT22;5779;64.178;15.432;2023-05-07T06:46:14;5.30;99.90
11446;DHT22;5779;64.178;15.432;2023-05-07T06:49:01;5.50;99.90
11446;DHT22;5779;64.178;15.432;2023-05-07T06:51:48;5.60;99.90
11446;DHT22;5779;64.178;15.432;2023-05-07T06:54:35;5.80;99.90
11446;DHT22;5779;64.178;15.432;2023-05-07T06:57:23;5.80;99.90
11446;DHT22;5779;64.178;15.432;2023-05-07T07:00:11;5.80;99.90
11446;DHT22;5779;64.178;15.432;2023-05-07T07:02:58;5.90;99.90
11446;DHT22;5779;64.178;15.432;2023-05-07T07:05:45;6.10;99.90
11446;DHT22;5779;64.178;15.432;2023-05-07T07:08:32;6.30;99.90
11446;DHT22;5779;64.178;15.432;2023-05-07T07:11:19;6.40;99.90
11446;DHT22;5779;64.178;15.432;2023-05-07T07:14:08;6.60;99.90
11446;DHT22;5779;64.178;15.432;2023-05-07T07:16:55;6.70;99.90
11446;DHT22;5779;64.178;15.432;2023-05-07T07:19:42;6.90;99.90
11446;DHT22;5779;64.178;15.432;2023-05-07T07:22:29;7.10;99.90
11446;DHT22;5779;64.178;15.432;2023-05-07T07:25:15;7.40;99.90
11446;DHT22;5779;64.178;15.432;2023-05-07T07:28:03;7.50;99.30
11446;DHT22;5779;64.178;15.432;2023-05-07T07:30:51;7.50;99.50
11446;DHT22;5779;64.178;15.432;2023-05-07T07:33:38;7.60;99.90
11446;DHT22;5779;64.178;15.432;2023-05-07T07:36:25;7.90;99.40
11446;DHT22;5779;64.178;15.432;2023-05-07T07:39:11;8.10;98.30
11446;DHT22;5779;64.178;15.432;2023-05-07T07:41:58;8.20;99.60
11446;DHT22;5779;64.178;15.432;2023-05-07T07:44:45;8.30;99.40
11446;DHT22;5779;64.178;15.432;2023-05-07T07:47:33;8.50;98.50
11446;DHT22;5779;64.178;15.432;2023-05-07T07:50:21;8.60;97.80
11446;DHT22;5779;64.178;15.432;2023-05-07T07:53:07;8.70;97.60
11446;DHT22;5779;64.178;15.432;2023-05-07T07:55:54;8.80;98.40
11446;DHT22;5779;64.178;15.432;2023-05-07T07:58:41;8.90;97.90
11446;DHT22;5779;64.178;15.432;2023-05-07T08:01:29;9.00;97.90
11446;DHT22;5779;64.178;15.432;2023-05-07T08:04:18;9.40;97.20
11446;DHT22;5779;64.178;15.432;2023-05-07T08:07:05;9.70;96.60
11446;DHT22;5779;64.178;15.432;2023-05-07T08:09:52;9.90;96.80
11446;DHT22;5779;64.178;15.432;2023-05-07T08:12:39;9.90;95.50
11446;DHT22;5779;64.178;15.432;2023-05-07T08:15:26;10.00;95.70
11446;DHT22;5779;64.178;15.432;2023-05-07T08:18:13;10.10;95.60
11446;DHT22;5779;64.178;15.432;2023-05-07T08:21:02;10.30;95.60
11446;DHT22;5779;64.178;15.432;2023-05-07T08:23:48;10.50;95.10
11446;DHT22;5779;64.178;15.432;2023-05-07T08:26:35;10.60;94.80
11446;DHT22;5779;64.178;15.432;2023-05-07T08:29:24;10.70;93.70
11446;DHT22;5779;64.178;15.432;2023-05-07T08:32:11;10.30;90.10
11446;DHT22;5779;64.178;15.432;2023-05-07T08:34:58;10.00;91.10
11446;DHT22;5779;64.178;15.432;2023-05-07T08:37:47;9.60;90.70
11446;DHT22;5779;64.178;15.432;2023-05-07T08:40:37;9.50;92.60
11446;DHT22;5779;64.178;15.432;2023-05-07T08:43:27;9.60;91.70
11446;DHT22;5779;64.178;15.432;2023-05-07T08:46:18;9.90;92.40
11446;DHT22;5779;64.178;15.432;2023-05-07T08:49:05;9.70;91.10
11446;DHT22;5779;64.178;15.432;2023-05-07T08:51:52;9.70;92.00
11446;DHT22;5779;64.178;15.432;2023-05-07T08:54:40;9.60;91.40
11446;DHT22;5779;64.178;15.432;2023-05-07T08:57:27;9.60;91.80
11446;DHT22;5779;64.178;15.432;2023-05-07T09:00:15;9.50;90.60
11446;DHT22;5779;64.178;15.432;2023-05-07T09:03:02;9.60;91.90
11446;DHT22;5779;64.178;15.432;2023-05-07T09:05:48;9.90;91.90
11446;DHT22;5779;64.178;15.432;2023-05-07T09:08:36;9.80;92.30
11446;DHT22;5779;64.178;15.432;2023-05-07T09:11:24;10.10;91.60
11446;DHT22;5779;64.178;15.432;2023-05-07T09:14:11;10.30;91.20
11446;DHT22;5779;64.178;15.432;2023-05-07T09:16:58;10.40;90.70
11446;DHT22;5779;64.178;15.432;2023-05-07T09:19:45;10.40;90.60
11446;DHT22;5779;64.178;15.432;2023-05-07T09:22:33;9.90;90.80
11446;DHT22;5779;64.178;15.432;2023-05-07T09:25:28;9.90;89.20
11446;DHT22;5779;64.178;15.432;2023-05-07T09:28:17;10.20;90.10
11446;DHT22;5779;64.178;15.432;2023-05-07T09:31:04;10.40;91.10
11446;DHT22;5779;64.178;15.432;2023-05-07T09:33:52;10.60;90.30
11446;DHT22;5779;64.178;15.432;2023-05-07T09:36:40;10.40;90.60
11446;DHT22;5779;64.178;15.432;2023-05-07T09:39:38;10.50;90.40
11446;DHT22;5779;64.178;15.432;2023-05-07T09:42:26;10.80;88.20
11446;DHT22;5779;64.178;15.432;2023-05-07T09:45:15;10.60;88.80
11446;DHT22;5779;64.178;15.432;2023-05-07T09:48:05;10.70;88.10
11446;DHT22;5779;64.178;15.432;2023-05-07T09:50:55;10.40;90.30
11446;DHT22;5779;64.178;15.432;2023-05-07T09:53:43;10.60;87.90
11446;DHT22;5779;64.178;15.432;2023-05-07T09:56:32;10.80;90.40
11446;DHT22;5779;64.178;15.432;2023-05-07T09:59:19;10.70;87.30
11446;DHT22;5779;64.178;15.432;2023-05-07T10:02:09;10.50;90.10
11446;DHT22;5779;64.178;15.432;2023-05-07T10:04:56;10.80;87.90
11446;DHT22;5779;64.178;15.432;2023-05-07T10:07:46;11.00;87.40
11446;DHT22;5779;64.178;15.432;2023-05-07T10:10:33;11.20;89.00
11446;DHT22;5779;64.178;15.432;2023-05-07T10:13:20;11.50;87.60
11446;DHT22;5779;64.178;15.432;2023-05-07T10:16:07;11.40;87.10
11446;DHT22;5779;64.178;15.432;2023-05-07T10:18:58;11.20;90.20
11446;DHT22;5779;64.178;15.432;2023-05-07T10:21:54;11.50;89.10
11446;DHT22;5779;64.178;15.432;2023-05-07T10:24:43;11.20;86.80
11446;DHT22;5779;64.178;15.432;2023-05-07T10:27:31;11.10;88.40
11446;DHT22;5779;64.178;15.432;2023-05-07T10:30:26;11.20;87.60
11446;DHT22;5779;64.178;15.432;2023-05-07T10:33:17;10.80;86.70
11446;DHT22;5779;64.178;15.432;2023-05-07T10:36:08;10.80;87.50
11446;DHT22;5779;64.178;15.432;2023-05-07T10:38:55;10.90;86.10
11446;DHT22;5779;64.178;15.432;2023-05-07T10:41:42;11.20;85.90
11446;DHT22;5779;64.178;15.432;2023-05-07T10:44:29;11.10;85.20
11446;DHT22;5779;64.178;15.432;2023-05-07T10:47:17;11.30;87.00
11446;DHT22;5779;64.178;15.432;2023-05-07T10:50:23;11.30;87.60
11446;DHT22;5779;64.178;15.432;2023-05-07T10:53:22;11.20;87.50
11446;DHT22;5779;64.178;15.432;2023-05-07T10:56:26;11.20;85.40
11446;DHT22;5779;64.178;15.432;2023-05-07T10:59:41;11.60;86.70
11446;DHT22;5779;64.178;15.432;2023-05-07T11:05:47;11.90;88.60
11446;DHT22;5779;64.178;15.432;2023-05-07T11:08:53;11.90;85.00
11446;DHT22;5779;64.178;15.432;2023-05-07T11:11:47;11.50;85.20
11446;DHT22;5779;64.178;15.432;2023-05-07T11:14:45;11.30;88.40
11446;DHT22;5779;64.178;15.432;2023-05-07T11:17:33;11.10;86.70
11446;DHT22;5779;64.178;15.432;2023-05-07T11:20:20;11.10;89.10
11446;DHT22;5779;64.178;15.432;2023-05-07T11:23:07;11.10;87.90
11446;DHT22;5779;64.178;15.432;2023-05-07T11:26:00;11.20;87.80
11446;DHT22;5779;64.178;15.432;2023-05-07T11:28:46;11.40;87.30
11446;DHT22;5779;64.178;15.432;2023-05-07T11:31:33;11.60;86.40
11446;DHT22;5779;64.178;15.432;2023-05-07T11:34:21;11.90;84.90
11446;DHT22;5779;64.178;15.432;2023-05-07T11:37:09;12.40;89.10
11446;DHT22;5779;64.178;15.432;2023-05-07T11:40:04;12.60;86.70
11446;DHT22;5779;64.178;15.432;2023-05-07T11:42:53;11.70;87.20
11446;DHT22;5779;64.178;15.432;2023-05-07T11:45:40;11.40;84.90
11446;DHT22;5779;64.178;15.432;2023-05-07T11:48:26;11.90;86.10
11446;DHT22;5779;64.178;15.432;2023-05-07T11:51:19;12.00;86.00
11446;DHT22;5779;64.178;15.432;2023-05-07T11:54:06;12.20;85.20
11446;DHT22;5779;64.178;15.432;2023-05-07T11:56:56;11.90;86.50
11446;DHT22;5779;64.178;15.432;2023-05-07T11:59:45;11.50;84.50
11446;DHT22;5779;64.178;15.432;2023-05-07T12:02:33;11.80;85.90
11446;DHT22;5779;64.178;15.432;2023-05-07T12:05:20;12.30;87.30
11446;DHT22;5779;64.178;15.432;2023-05-07T12:08:07;12.40;88.10
11446;DHT22;5779;64.178;15.432;2023-05-07T12:10:54;12.50;86.40
11446;DHT22;5779;64.178;15.432;2023-05-07T12:13:41;12.50;87.70
11446;DHT22;5779;64.178;15.432;2023-05-07T12:16:30;12.40;87.10
11446;DHT22;5779;64.178;15.432;2023-05-07T12:19:18;12.50;84.90
11446;DHT22;5779;64.178;15.432;2023-05-07T12:22:05;12.70;83.90
11446;DHT22;5779;64.178;15.432;2023-05-07T12:24:58;12.50;85.80
11446;DHT22;5779;64.178;15.432;2023-05-07T12:27:44;12.60;83.00
11446;DHT22;5779;64.178;15.432;2023-05-07T12:30:38;13.00;84.30
11446;DHT22;5779;64.178;15.432;2023-05-07T12:33:27;13.00;84.00
11446;DHT22;5779;64.178;15.432;2023-05-07T12:36:16;13.00;86.90
11446;DHT22;5779;64.178;15.432;2023-05-07T12:39:04;13.20;82.50
11446;DHT22;5779;64.178;15.432;2023-05-07T12:41:55;13.50;84.80
11446;DHT22;5779;64.178;15.432;2023-05-07T12:44:43;12.90;80.60
11446;DHT22;5779;64.178;15.432;2023-05-07T12:47:31;12.80;81.40
11446;DHT22;5779;64.178;15.432;2023-05-07T12:50:20;12.60;80.80
11446;DHT22;5779;64.178;15.432;2023-05-07T12:53:08;12.60;82.20
11446;DHT22;5779;64.178;15.432;2023-05-07T12:55:57;12.80;80.40
11446;DHT22;5779;64.178;15.432;2023-05-07T12:58:44;12.60;80.60
11446;DHT22;5779;64.178;15.432;2023-05-07T13:01:33;12.90;80.30
11446;DHT22;5779;64.178;15.432;2023-05-07T13:04:20;13.10;79.50
11446;DHT22;5779;64.178;15.432;2023-05-07T13:07:12;13.00;79.60
11446;DHT22;5779;64.178;15.432;2023-05-07T13:09:59;12.80;76.00
11446;DHT22;5779;64.178;15.432;2023-05-07T13:12:45;12.60;78.40
11446;DHT22;5779;64.178;15.432;2023-05-07T13:15:32;12.20;75.20
11446;DHT22;5779;64.178;15.432;2023-05-07T13:18:19;12.40;75.50
11446;DHT22;5779;64.178;15.432;2023-05-07T13:21:06;12.70;78.20
11446;DHT22;5779;64.178;15.432;2023-05-07T13:23:54;12.90;79.70
11446;DHT22;5779;64.178;15.432;2023-05-07T13:26:41;12.80;80.00
11446;DHT22;5779;64.178;15.432;2023-05-07T13:29:28;12.30;79.70
11446;DHT22;5779;64.178;15.432;2023-05-07T13:32:15;12.60;77.40
11446;DHT22;5779;64.178;15.432;2023-05-07T13:35:02;12.10;78.30
11446;DHT22;5779;64.178;15.432;2023-05-07T13:37:49;11.80;77.70
11446;DHT22;5779;64.178;15.432;2023-05-07T13:40:38;11.60;81.80
11446;DHT22;5779;64.178;15.432;2023-05-07T13:43:25;11.30;81.10
11446;DHT22;5779;64.178;15.432;2023-05-07T13:46:12;11.30;83.70
11446;DHT22;5779;64.178;15.432;2023-05-07T13:48:59;11.50;81.40
11446;DHT22;5779;64.178;15.432;2023-05-07T13:51:46;11.60;81.20
11446;DHT22;5779;64.178;15.432;2023-05-07T13:54:33;11.50;80.60
11446;DHT22;5779;64.178;15.432;2023-05-07T13:57:21;11.50;78.40
11446;DHT22;5779;64.178;15.432;2023-05-07T14:00:10;11.70;79.90
11446;DHT22;5779;64.178;15.432;2023-05-07T14:02:57;11.70;78.10
11446;DHT22;5779;64.178;15.432;2023-05-07T14:05:44;11.80;77.70
11446;DHT22;5779;64.178;15.432;2023-05-07T14:08:31;11.90;78.80
11446;DHT22;5779;64.178;15.432;2023-05-07T14:11:18;12.00;75.90
11446;DHT22;5779;64.178;15.432;2023-05-07T14:14:07;12.00;76.00
11446;DHT22;5779;64.178;15.432;2023-05-07T14:16:56;11.90;76.20
11446;DHT22;5779;64.178;15.432;2023-05-07T14:19:43;12.60;76.40
11446;DHT22;5779;64.178;15.432;2023-05-07T14:22:30;12.50;76.60
11446;DHT22;5779;64.178;15.432;2023-05-07T14:25:17;12.60;72.80
11446;DHT22;5779;64.178;15.432;2023-05-07T14:28:03;12.40;74.20
11446;DHT22;5779;64.178;15.432;2023-05-07T14:30:52;12.20;76.00
11446;DHT22;5779;64.178;15.432;2023-05-07T14:33:39;11.80;75.20
11446;DHT22;5779;64.178;15.432;2023-05-07T14:36:26;12.30;77.10
11446;DHT22;5779;64.178;15.432;2023-05-07T14:39:15;12.50;76.90
11446;DHT22;5779;64.178;15.432;2023-05-07T14:42:02;12.20;76.70
11446;DHT22;5779;64.178;15.432;2023-05-07T14:44:49;12.20;77.10
11446;DHT22;5779;64.178;15.432;2023-05-07T14:47:39;12.00;77.00
11446;DHT22;5779;64.178;15.432;2023-05-07T14:50:26;11.80;76.20
11446;DHT22;5779;64.178;15.432;2023-05-07T14:53:13;11.80;73.90
11446;DHT22;5779;64.178;15.432;2023-05-07T14:56:00;12.00;75.50
11446;DHT22;5779;64.178;15.432;2023-05-07T14:58:48;11.70;71.70
11446;DHT22;5779;64.178;15.432;2023-05-07T15:01:36;11.70;71.20
11446;DHT22;5779;64.178;15.432;2023-05-07T15:04:24;11.50;74.90
11446;DHT22;5779;64.178;15.432;2023-05-07T15:07:11;11.60;74.30
11446;DHT22;5779;64.178;15.432;2023-05-07T15:10:00;11.50;76.10
11446;DHT22;5779;64.178;15.432;2023-05-07T15:12:46;11.50;73.60
11446;DHT22;5779;64.178;15.432;2023-05-07T15:15:34;11.50;74.50
11446;DHT22;5779;64.178;15.432;2023-05-07T15:18:21;11.70;77.30
11446;DHT22;5779;64.178;15.432;2023-05-07T15:21:10;11.70;78.50
11446;DHT22;5779;64.178;15.432;2023-05-07T15:23:58;11.80;76.60
11446;DHT22;5779;64.178;15.432;2023-05-07T15:26:46;11.60;78.60
11446;DHT22;5779;64.178;15.432;2023-05-07T15:29:33;11.60;79.10
11446;DHT22;5779;64.178;15.432;2023-05-07T15:32:21;11.80;79.10
11446;DHT22;5779;64.178;15.432;2023-05-07T15:35:08;11.70;77.90
11446;DHT22;5779;64.178;15.432;2023-05-07T15:37:57;11.60;77.70
11446;DHT22;5779;64.178;15.432;2023-05-07T15:40:44;11.30;79.10
11446;DHT22;5779;64.178;15.432;2023-05-07T15:43:31;11.30;79.60
11446;DHT22;5779;64.178;15.432;2023-05-07T15:46:18;11.30;82.10
11446;DHT22;5779;64.178;15.432;2023-05-07T15:49:05;11.20;82.60
11446;DHT22;5779;64.178;15.432;2023-05-07T15:51:53;11.20;83.60
11446;DHT22;5779;64.178;15.432;2023-05-07T15:54:41;11.30;82.90
11446;DHT22;5779;64.178;15.432;2023-05-07T15:57:28;11.20;84.30
11446;DHT22;5779;64.178;15.432;2023-05-07T16:00:16;10.90;83.70
11446;DHT22;5779;64.178;15.432;2023-05-07T16:03:03;10.70;81.10
11446;DHT22;5779;64.178;15.432;2023-05-07T16:05:50;10.70;83.50
11446;DHT22;5779;64.178;15.432;2023-05-07T16:08:37;10.90;84.50
11446;DHT22;5779;64.178;15.432;2023-05-07T16:11:27;10.90;85.50
11446;DHT22;5779;64.178;15.432;2023-05-07T16:14:14;10.70;81.00
11446;DHT22;5779;64.178;15.432;2023-05-07T16:17:01;10.70;82.00
11446;DHT22;5779;64.178;15.432;2023-05-07T16:19:49;10.70;81.00
11446;DHT22;5779;64.178;15.432;2023-05-07T16:22:36;10.60;80.80
11446;DHT22;5779;64.178;15.432;2023-05-07T16:25:23;10.40;81.70
11446;DHT22;5779;64.178;15.432;2023-05-07T16:28:11;10.30;83.60
11446;DHT22;5779;64.178;15.432;2023-05-07T16:30:58;10.10;84.00
11446;DHT22;5779;64.178;15.432;2023-05-07T16:33:46;10.10;84.40
11446;DHT22;5779;64.178;15.432;2023-05-07T16:36:32;10.10;84.00
11446;DHT22;5779;64.178;15.432;2023-05-07T16:39:19;10.00;84.40
11446;DHT22;5779;64.178;15.432;2023-05-07T16:42:06;10.10;84.90
11446;DHT22;5779;64.178;15.432;2023-05-07T16:44:55;10.10;84.70
11446;DHT22;5779;64.178;15.432;2023-05-07T16:47:41;10.10;84.90
11446;DHT22;5779;64.178;15.432;2023-05-07T16:50:28;10.00;85.60
11446;DHT22;5779;64.178;15.432;2023-05-07T16:53:15;10.10;86.10
11446;DHT22;5779;64.178;15.432;2023-05-07T16:56:04;10.10;86.30
11446;DHT22;5779;64.178;15.432;2023-05-07T16:58:50;10.10;85.40
11446;DHT22;5779;64.178;15.432;2023-05-07T17:01:39;10.00;85.10
11446;DHT22;5779;64.178;15.432;2023-05-07T17:04:26;9.90;86.60
11446;DHT22;5779;64.178;15.432;2023-05-07T17:07:14;10.00;86.30
11446;DHT22;5779;64.178;15.432;2023-05-07T17:10:01;9.90;86.50
11446;DHT22;5779;64.178;15.432;2023-05-07T17:12:49;9.80;86.20
11446;DHT22;5779;64.178;15.432;2023-05-07T17:15:36;9.80;86.30
11446;DHT22;5779;64.178;15.432;2023-05-07T17:18:24;9.80;87.10
11446;DHT22;5779;64.178;15.432;2023-05-07T17:21:11;9.80;87.50
11446;DHT22;5779;64.178;15.432;2023-05-07T17:23:58;9.80;87.80
11446;DHT22;5779;64.178;15.432;2023-05-07T17:26:46;9.70;88.20
11446;DHT22;5779;64.178;15.432;2023-05-07T17:29:33;9.70;90.10
11446;DHT22;5779;64.178;15.432;2023-05-07T17:32:20;9.80;89.60
11446;DHT22;5779;64.178;15.432;2023-05-07T17:35:09;9.80;90.30
11446;DHT22;5779;64.178;15.432;2023-05-07T17:37:56;10.20;89.20
11446;DHT22;5779;64.178;15.432;2023-05-07T17:40:42;10.30;88.80
11446;DHT22;5779;64.178;15.432;2023-05-07T17:43:29;9.80;89.70
11446;DHT22;5779;64.178;15.432;2023-05-07T17:46:16;9.70;90.70
11446;DHT22;5779;64.178;15.432;2023-05-07T17:49:03;9.90;90.50